CDT,Max TemperatureF,Mean TemperatureF,Min TemperatureF,Max Dew PointF,MeanDew PointF,Min DewpointF,Max Humidity, Mean Humidity, Min Humidity, Max Sea Level PressureIn, Mean Sea Level PressureIn, Min Sea Level PressureIn, Max VisibilityMiles, Mean VisibilityMiles, Min VisibilityMiles, Max Wind SpeedMPH, Mean Wind SpeedMPH, Max Gust SpeedMPH,PrecipitationIn, CloudCover, Events, WindDirDegrees
2013-4-1,87,78,69,68,67,65,90,71,51,29.99,29.93,29.88,10,10,8,21,11,25,0.00,5,,118
2013-4-2,86,78,70,70,68,66,90,73,55,29.96,29.85,29.74,10,10,10,24,13,29,0.00,5,,136
2013-4-3,83,73,62,70,63,53,93,68,42,30.08,29.87,29.77,10,10,5,24,12,30,T,6,Rain,37
2013-4-4,80,68,55,52,49,48,77,61,44,30.16,30.10,30.03,10,10,10,20,13,27,0.00,2,,359
2013-4-5,73,66,55,54,53,51,80,65,49,30.26,30.15,30.07,10,10,10,17,10,23,0.00,0,,89
2013-4-6,83,69,55,60,57,53,87,65,43,30.08,29.97,29.87,10,10,4,30,14,37,0.00,2,,145
2013-4-7,87,77,66,66,62,61,81,62,42,29.91,29.84,29.77,10,10,10,26,18,33,0.00,3,,153
2013-4-8,88,80,71,69,67,66,84,67,50,29.82,29.72,29.63,10,10,9,31,20,36,0.00,5,,158
2013-4-9,95,84,73,70,69,66,87,64,41,29.70,29.63,29.56,10,9,6,30,21,37,0.00,3,,160
2013-4-10,93,84,75,70,70,69,82,67,52,29.68,29.63,29.59,10,9,7,25,19,37,0.00,2,,156
2013-4-11,75,66,57,52,48,43,80,57,33,29.92,29.85,29.80,10,10,10,18,11,24,0.00,1,,61
2013-4-12,81,67,53,61,57,50,93,69,45,29.93,29.89,29.84,10,10,10,22,9,29,0.00,2,,93
2013-4-13,84,73,61,66,61,56,97,69,40,29.93,29.81,29.71,10,10,10,26,13,35,0.00,4,,110
2013-4-14,93,80,67,70,67,64,93,67,41,29.78,29.72,29.63,10,9,5,20,9,25,T,5,,136
2013-4-15,94,83,71,70,68,65,93,66,39,29.79,29.73,29.65,10,7,3,25,15,31,0.00,3,,151
2013-4-16,96,84,72,73,71,66,87,64,41,29.83,29.77,29.70,10,7,3,33,17,43,0.00,3,,141
2013-4-17,97,87,77,73,72,69,88,66,43,29.84,29.74,29.62,10,7,5,29,21,35,0.00,6,,155
2013-4-18,98,80,62,73,65,46,79,59,38,30.01,29.71,29.60,10,7,2,36,21,43,0.00,5,,118
2013-4-19,70,60,50,46,38,29,68,45,22,30.31,30.19,30.03,10,10,10,29,14,37,0.00,4,,35
2013-4-20,79,63,46,51,44,36,80,52,23,30.22,30.12,30.01,10,10,10,21,7,24,0.00,0,,120
2013-4-21,84,70,56,64,58,50,87,65,42,30.08,30.03,29.97,10,10,10,20,9,26,0.00,2,,106
2013-4-22,88,76,63,67,65,62,93,70,46,30.06,30.00,29.90,10,10,7,23,11,26,0.00,4,,122
2013-4-23,86,78,70,70,68,66,90,74,58,29.94,29.85,29.76,10,10,10,29,16,35,T,7,Rain,143
2013-4-24,75,64,53,72,58,46,93,85,77,30.20,30.05,29.89,10,7,2,31,15,41,0.04,7,Rain,8
2013-4-25,67,63,58,65,58,49,100,84,67,30.22,30.17,30.11,10,6,1,17,10,21,0.06,8,Rain,332
2013-4-26,89,76,62,70,66,61,100,74,47,30.15,30.07,29.98,10,6,0,26,13,32,0.00,7,Fog,157
2013-4-27,89,82,74,71,69,66,87,69,50,30.05,29.96,29.88,10,10,8,22,15,28,0.00,5,,136
2013-4-28,79,72,65,72,68,63,97,86,74,30.00,29.92,29.82,10,7,0,45,11,51,2.37,7,Fog-Rain-Thunderstorm,81
2013-4-29,81,74,66,70,67,64,100,81,62,29.91,29.85,29.76,10,8,2,17,7,21,T,5,Rain,74
2013-4-30,87,76,65,73,69,64,97,78,59,29.80,29.76,29.69,10,6,0,18,8,22,0.00,3,Fog,103